createdAt,value
2023-01-19T00:02:23.187Z,11.57
2023-01-19T00:04:49.416Z,12.95
2023-01-19T00:07:15.691Z,11.25
2023-01-19T00:09:41.902Z,16.15
2023-01-19T00:12:08.165Z,10.73
2023-01-19T00:14:34.475Z,11.80
2023-01-19T00:17:01.739Z,10.45
2023-01-19T00:19:28.357Z,12.18
2023-01-19T00:21:54.952Z,11.70
2023-01-19T00:24:21.171Z,11.48
2023-01-19T00:26:47.396Z,13.57
2023-01-19T00:29:13.894Z,13.43
2023-01-19T00:31:40.117Z,11.25
2023-01-19T00:34:07.014Z,13.00
2023-01-19T00:36:33.624Z,12.25
2023-01-19T00:39:00.360Z,15.48
2023-01-19T00:41:45.170Z,12.10
2023-01-19T00:44:11.789Z,10.95
2023-01-19T00:46:38.688Z,11.40
2023-01-19T00:49:05.080Z,12.85
2023-01-19T00:51:31.651Z,10.68
2023-01-19T00:53:59.797Z,10.10
2023-01-19T00:56:27.041Z,10.95
2023-01-19T00:58:53.512Z,13.02
2023-01-19T01:01:19.833Z,11.40
2023-01-19T01:03:46.089Z,10.30
2023-01-19T01:06:12.286Z,13.40
2023-01-19T01:08:38.506Z,12.48
2023-01-19T01:11:04.828Z,9.68
2023-01-19T01:13:31.354Z,10.57
2023-01-19T01:15:58.021Z,9.98
2023-01-19T01:18:24.248Z,10.35
2023-01-19T01:20:50.463Z,8.98
2023-01-19T01:23:16.686Z,10.85
2023-01-19T01:25:43.366Z,11.27
2023-01-19T01:28:09.852Z,11.13
2023-01-19T01:30:39.829Z,10.23
2023-01-19T01:33:06.320Z,9.48
2023-01-19T01:35:33.830Z,10.45
2023-01-19T01:38:00.695Z,11.52
2023-01-19T01:40:28.398Z,8.57
2023-01-19T01:42:54.620Z,11.60
2023-01-19T01:45:34.366Z,8.27
2023-01-19T01:48:10.123Z,8.45
2023-01-19T01:50:38.987Z,8.65
2023-01-19T01:53:11.990Z,7.75
2023-01-19T01:55:42.001Z,6.70
2023-01-19T01:58:09.164Z,10.70
2023-01-19T02:01:05.185Z,7.78
2023-01-19T02:03:33.066Z,8.63
2023-01-19T02:06:01.611Z,7.32
2023-01-19T02:08:52.184Z,7.10
2023-01-19T02:11:37.167Z,7.97
2023-01-19T02:14:04.796Z,8.07
2023-01-19T02:16:31.276Z,7.10
2023-01-19T02:18:57.768Z,7.28
2023-01-19T02:21:31.241Z,9.32
2023-01-19T02:23:58.625Z,8.05
2023-01-19T02:26:27.892Z,7.90
2023-01-19T02:29:20.528Z,7.40
2023-01-19T02:31:46.850Z,7.90
2023-01-19T02:34:15.306Z,7.70
2023-01-19T02:36:44.280Z,8.63
2023-01-19T02:39:10.999Z,8.57
2023-01-19T02:41:42.802Z,8.57
2023-01-19T02:44:10.113Z,7.82
2023-01-19T02:46:37.720Z,9.60
2023-01-19T02:49:03.976Z,7.53
2023-01-19T02:51:30.487Z,10.50
2023-01-19T02:54:09.528Z,10.93
2023-01-19T02:56:43.898Z,10.35
2023-01-19T02:59:33.855Z,10.73
2023-01-19T03:02:05.412Z,10.60
2023-01-19T03:04:40.487Z,10.05
2023-01-19T03:07:06.699Z,10.35
2023-01-19T03:09:40.058Z,10.27
2023-01-19T03:12:35.462Z,12.57
2023-01-19T03:15:07.626Z,9.82
2023-01-19T03:17:34.401Z,11.27
2023-01-19T03:20:02.253Z,8.52
2023-01-19T03:22:29.494Z,12.60
2023-01-19T03:24:59.101Z,12.75
2023-01-19T03:27:26.893Z,9.55
2023-01-19T03:29:56.355Z,11.77
2023-01-19T03:32:29.634Z,9.27
2023-01-19T03:34:56.859Z,11.15
2023-01-19T03:37:24.220Z,9.25
2023-01-19T03:39:50.436Z,8.80
2023-01-19T03:42:17.928Z,11.65
2023-01-19T03:44:45.394Z,9.38
2023-01-19T03:47:13.301Z,11.68
2023-01-19T03:49:40.916Z,12.95
2023-01-19T03:52:07.098Z,9.35
2023-01-19T03:54:33.355Z,10.93
2023-01-19T03:56:59.554Z,10.32
2023-01-19T03:59:25.797Z,8.98
2023-01-19T04:01:52.129Z,15.10
2023-01-19T04:04:18.472Z,12.27
2023-01-19T04:06:44.675Z,11.57
2023-01-19T04:09:11.095Z,8.98
2023-01-19T04:11:37.292Z,10.13
2023-01-19T04:14:03.960Z,10.48
2023-01-19T04:16:30.148Z,10.95
2023-01-19T04:18:57.172Z,9.68
2023-01-19T04:21:23.519Z,9.63
2023-01-19T04:23:49.940Z,11.60
2023-01-19T04:26:16.158Z,8.65
2023-01-19T04:28:42.718Z,11.52
2023-01-19T04:31:09.065Z,11.35
2023-01-19T04:33:35.388Z,10.38
2023-01-19T04:36:01.749Z,10.25
2023-01-19T04:38:28.023Z,9.45
2023-01-19T04:40:54.371Z,8.90
2023-01-19T04:43:21.147Z,7.35
2023-01-19T04:45:47.829Z,10.55
2023-01-19T04:48:14.176Z,7.95
2023-01-19T04:50:41.452Z,9.13
2023-01-19T04:53:08.089Z,9.43
2023-01-19T04:55:34.426Z,8.57
2023-01-19T04:58:00.639Z,8.93
2023-01-19T05:00:26.836Z,8.15
2023-01-19T05:02:53.379Z,8.05
2023-01-19T05:05:19.629Z,9.75
2023-01-19T05:07:45.845Z,10.10
2023-01-19T05:10:12.131Z,8.43
2023-01-19T05:12:38.340Z,9.27
2023-01-19T05:15:04.730Z,8.23
2023-01-19T05:17:30.940Z,10.98
2023-01-19T05:19:57.137Z,10.13
2023-01-19T05:22:23.362Z,10.48
2023-01-19T05:24:49.672Z,9.32
2023-01-19T05:27:15.916Z,11.45
2023-01-19T05:29:42.120Z,9.02
2023-01-19T05:32:08.322Z,9.70
2023-01-19T05:34:34.562Z,9.38
2023-01-19T05:37:00.820Z,9.48
2023-01-19T05:39:27.126Z,13.13
2023-01-19T05:41:53.311Z,10.57
2023-01-19T05:44:19.519Z,11.05
2023-01-19T05:46:45.848Z,14.20
2023-01-19T05:49:12.174Z,15.98
2023-01-19T05:51:38.639Z,15.63
2023-01-19T05:54:05.677Z,14.98
2023-01-19T05:56:32.697Z,13.48
2023-01-19T05:58:59.696Z,14.80
2023-01-19T06:01:26.144Z,15.40
2023-01-19T06:03:52.373Z,15.50
2023-01-19T06:06:18.738Z,18.10
2023-01-19T06:08:45.505Z,16.60
2023-01-19T06:11:12.204Z,20.02
2023-01-19T06:13:41.386Z,20.60
2023-01-19T06:16:08.496Z,20.15
2023-01-19T06:18:34.806Z,18.35
2023-01-19T06:21:07.613Z,17.13
2023-01-19T06:23:35.371Z,16.38
2023-01-19T06:26:02.030Z,18.60
2023-01-19T06:28:28.351Z,19.85
2023-01-19T06:30:55.308Z,19.08
2023-01-19T06:33:22.156Z,17.90
2023-01-19T06:35:48.976Z,17.10
2023-01-19T06:38:17.012Z,18.02
2023-01-19T06:40:43.462Z,16.40
2023-01-19T06:43:09.777Z,18.73
2023-01-19T06:45:36.445Z,17.25
2023-01-19T06:48:03.613Z,16.58
2023-01-19T06:50:29.802Z,15.15
2023-01-19T06:52:56.027Z,16.40
2023-01-19T06:55:22.371Z,15.50
2023-01-19T06:57:58.527Z,14.63
2023-01-19T07:00:25.092Z,18.15
2023-01-19T07:02:51.353Z,17.10
2023-01-19T07:05:17.604Z,16.48
2023-01-19T07:07:45.343Z,17.50
2023-01-19T07:10:12.000Z,18.83
2023-01-19T07:12:39.109Z,20.10
2023-01-19T07:15:06.050Z,21.38
2023-01-19T07:17:32.308Z,17.40
2023-01-19T07:19:58.510Z,20.70
2023-01-19T07:22:24.746Z,16.88
2023-01-19T07:24:50.948Z,19.52
2023-01-19T07:27:17.128Z,20.27
2023-01-19T07:29:43.462Z,20.58
2023-01-19T07:32:09.887Z,20.67
2023-01-19T07:34:36.434Z,22.80
2023-01-19T07:37:02.648Z,22.55
2023-01-19T07:39:28.905Z,20.58
2023-01-19T07:41:55.485Z,20.00
2023-01-19T07:44:21.772Z,21.25
2023-01-19T07:46:48.052Z,21.17
2023-01-19T07:49:14.279Z,20.50
2023-01-19T07:51:40.468Z,20.73
2023-01-19T07:54:08.351Z,23.02
2023-01-19T07:56:34.582Z,27.75
2023-01-19T07:59:00.791Z,22.95
2023-01-19T08:01:27.207Z,23.58
2023-01-19T08:03:53.586Z,25.23
2023-01-19T08:06:23.577Z,27.55
2023-01-19T08:08:50.235Z,28.75
2023-01-19T08:11:16.638Z,22.35
2023-01-19T08:13:43.409Z,23.80
2023-01-19T08:16:09.730Z,26.27
2023-01-19T08:18:36.073Z,25.25
2023-01-19T08:21:02.324Z,22.85
2023-01-19T08:23:28.538Z,24.30
2023-01-19T08:25:54.752Z,23.45
2023-01-19T08:28:21.095Z,25.35
2023-01-19T08:30:53.882Z,26.05
2023-01-19T08:33:20.993Z,26.63
2023-01-19T08:35:48.887Z,23.80
2023-01-19T08:38:15.123Z,22.95
2023-01-19T08:40:41.847Z,25.70
2023-01-19T08:43:09.211Z,23.05
2023-01-19T08:45:36.073Z,30.55
2023-01-19T08:48:02.760Z,26.30
2023-01-19T08:50:29.803Z,22.55
2023-01-19T08:52:57.242Z,22.90
2023-01-19T08:55:24.078Z,27.58
2023-01-19T08:57:51.151Z,26.25
2023-01-19T09:00:17.635Z,26.40
2023-01-19T09:02:43.905Z,24.55
2023-01-19T09:05:10.470Z,29.98
2023-01-19T09:07:37.016Z,23.70
2023-01-19T09:10:04.049Z,22.17
2023-01-19T09:12:30.258Z,27.85
2023-01-19T09:14:56.468Z,22.98
2023-01-19T09:17:22.774Z,32.65
2023-01-19T09:19:49.142Z,27.35
2023-01-19T09:22:15.360Z,28.40
2023-01-19T09:24:41.558Z,28.83
2023-01-19T09:27:07.752Z,25.95
2023-01-19T09:29:34.013Z,29.80
2023-01-19T09:32:00.221Z,26.85
2023-01-19T09:34:26.505Z,29.08
2023-01-19T09:36:52.788Z,29.45
2023-01-19T09:39:19.059Z,30.00
2023-01-19T09:41:47.061Z,30.33
2023-01-19T09:44:16.909Z,29.45
2023-01-19T09:46:43.155Z,36.03
2023-01-19T09:49:32.789Z,29.10
2023-01-19T09:51:59.179Z,34.03
2023-01-19T09:54:28.370Z,29.58
2023-01-19T09:56:54.663Z,31.95
2023-01-19T09:59:25.446Z,35.38
2023-01-19T10:02:10.621Z,31.25
2023-01-19T10:04:55.350Z,36.70
2023-01-19T10:07:40.191Z,33.15
2023-01-19T10:10:13.147Z,30.73
2023-01-19T10:12:51.755Z,34.30
2023-01-19T10:15:38.248Z,37.05
2023-01-19T10:18:17.203Z,30.83
2023-01-19T10:20:46.144Z,38.35
2023-01-19T10:23:19.511Z,34.47
2023-01-19T10:25:46.502Z,36.20
2023-01-19T10:28:13.378Z,38.72
2023-01-19T10:30:42.348Z,43.35
2023-01-19T10:33:11.405Z,42.03
2023-01-19T10:35:37.635Z,40.35
2023-01-19T10:38:03.905Z,40.42
2023-01-19T10:40:36.173Z,40.97
2023-01-19T10:43:22.356Z,36.15
2023-01-19T10:45:49.868Z,38.97
2023-01-19T10:48:16.151Z,46.63
2023-01-19T10:50:42.362Z,38.97
2023-01-19T10:53:20.060Z,38.03
2023-01-19T10:55:46.433Z,40.67
2023-01-19T10:58:29.288Z,38.83
2023-01-19T11:00:55.819Z,36.50
2023-01-19T11:03:28.041Z,38.70
2023-01-19T11:05:58.974Z,38.72
2023-01-19T11:08:29.406Z,40.40
2023-01-19T11:10:58.854Z,34.47
2023-01-19T11:13:25.167Z,35.25
2023-01-19T11:15:57.447Z,33.00
2023-01-19T11:18:35.661Z,33.67
2023-01-19T11:21:03.397Z,32.92
2023-01-19T11:23:32.167Z,38.70
2023-01-19T11:26:00.414Z,37.80
2023-01-19T11:28:31.493Z,36.35
2023-01-19T11:30:59.437Z,37.35
2023-01-19T11:33:34.240Z,42.58
2023-01-19T11:36:07.825Z,34.17
2023-01-19T11:38:40.059Z,27.17
2023-01-19T11:41:13.199Z,32.35
2023-01-19T11:43:48.682Z,33.88
2023-01-19T11:46:16.237Z,30.65
2023-01-19T11:48:44.939Z,31.05
2023-01-19T11:51:14.412Z,27.42
2023-01-19T11:53:43.264Z,27.38
2023-01-19T11:56:13.861Z,25.33
2023-01-19T11:58:41.475Z,34.97
2023-01-19T12:01:07.905Z,24.77
2023-01-19T12:03:39.217Z,23.63
2023-01-19T12:06:07.758Z,23.33
2023-01-19T12:08:39.415Z,22.50
2023-01-19T12:11:08.732Z,23.05
2023-01-19T12:13:35.464Z,24.05
2023-01-19T12:16:07.086Z,25.85
2023-01-19T12:18:36.740Z,26.58
2023-01-19T12:21:04.228Z,23.67
2023-01-19T12:23:49.608Z,21.55
2023-01-19T12:26:15.833Z,28.67
2023-01-19T12:28:44.100Z,24.45
2023-01-19T12:31:14.086Z,25.88
2023-01-19T12:33:40.547Z,21.73
2023-01-19T12:36:11.729Z,25.85
2023-01-19T12:38:43.067Z,24.77
2023-01-19T12:41:27.529Z,25.08
2023-01-19T12:44:12.257Z,26.52
2023-01-19T12:46:49.412Z,23.10
2023-01-19T12:49:21.835Z,27.08
2023-01-19T12:51:48.441Z,28.38
2023-01-19T12:54:34.049Z,29.48
2023-01-19T12:57:02.131Z,32.50
2023-01-19T12:59:28.690Z,25.70
2023-01-19T13:02:13.688Z,25.00
2023-01-19T13:04:39.959Z,28.10
2023-01-19T13:07:10.145Z,23.88
2023-01-19T13:09:37.839Z,25.75
2023-01-19T13:12:13.471Z,28.13
2023-01-19T13:14:40.150Z,29.05
2023-01-19T13:17:18.463Z,24.40
2023-01-19T13:19:47.821Z,21.15
2023-01-19T13:22:32.911Z,27.35
2023-01-19T13:25:11.865Z,25.90
2023-01-19T13:27:38.367Z,25.48
2023-01-19T13:30:10.929Z,26.90
2023-01-19T13:32:40.109Z,30.17
2023-01-19T13:35:06.701Z,24.35
2023-01-19T13:37:38.817Z,26.40
2023-01-19T13:40:05.513Z,24.42
2023-01-19T13:42:38.851Z,30.40
2023-01-19T13:45:11.059Z,30.73
2023-01-19T13:47:37.231Z,24.42
2023-01-19T13:50:03.854Z,26.48
2023-01-19T13:52:30.650Z,26.10
2023-01-19T13:55:01.160Z,28.30
2023-01-19T13:57:32.883Z,27.55
2023-01-19T14:00:02.143Z,25.45
2023-01-19T14:02:28.420Z,24.52
2023-01-19T14:04:57.098Z,24.60
2023-01-19T14:07:26.510Z,27.50
2023-01-19T14:10:05.982Z,27.85
2023-01-19T14:12:32.393Z,23.88
2023-01-19T14:14:58.600Z,27.90
2023-01-19T14:17:24.849Z,28.48
2023-01-19T14:19:52.445Z,27.17
2023-01-19T14:22:18.684Z,25.75
2023-01-19T14:24:44.939Z,25.17
2023-01-19T14:27:24.493Z,27.58
2023-01-19T14:29:53.599Z,26.48
2023-01-19T14:32:21.115Z,26.88
2023-01-19T14:34:52.707Z,24.92
2023-01-19T14:37:24.990Z,23.92
2023-01-19T14:40:11.106Z,25.00
2023-01-19T14:42:39.140Z,22.70
2023-01-19T14:45:15.855Z,23.75
2023-01-19T14:47:43.469Z,18.20
2023-01-19T14:50:30.020Z,24.13
2023-01-19T14:52:58.009Z,23.88
2023-01-19T14:55:28.755Z,23.20
2023-01-19T14:57:55.233Z,22.58
2023-01-19T15:00:21.778Z,21.90
2023-01-19T15:02:48.083Z,21.27
2023-01-19T15:05:14.526Z,21.67
2023-01-19T15:07:42.344Z,21.48
2023-01-19T15:10:20.952Z,25.67
2023-01-19T15:12:48.084Z,20.40
2023-01-19T15:15:15.600Z,19.83
2023-01-19T15:17:42.122Z,19.88
2023-01-19T15:20:15.954Z,21.17
2023-01-19T15:22:42.279Z,19.20
2023-01-19T15:25:09.667Z,21.30
2023-01-19T15:27:36.107Z,17.15
2023-01-19T15:30:02.300Z,18.35
2023-01-19T15:32:28.510Z,19.83
2023-01-19T15:34:54.864Z,18.73
2023-01-19T15:37:21.065Z,18.23
2023-01-19T15:39:47.321Z,17.45
2023-01-19T15:42:14.353Z,20.00
2023-01-19T15:44:40.578Z,19.25
2023-01-19T15:47:06.861Z,18.65
2023-01-19T15:49:33.433Z,19.90
2023-01-19T15:51:59.639Z,18.08
2023-01-19T15:54:26.044Z,20.90
2023-01-19T15:56:52.767Z,17.42
2023-01-19T15:59:18.964Z,20.52
2023-01-19T16:01:45.274Z,17.33
2023-01-19T16:04:11.788Z,14.32
2023-01-19T16:06:38.033Z,19.42
2023-01-19T16:09:04.254Z,17.60
2023-01-19T16:11:31.864Z,19.25
2023-01-19T16:13:58.072Z,15.20
2023-01-19T16:16:25.006Z,17.58
2023-01-19T16:18:51.278Z,17.27
2023-01-19T16:21:17.563Z,16.23
2023-01-19T16:23:43.890Z,13.43
2023-01-19T16:26:29.197Z,16.75
2023-01-19T16:28:55.960Z,14.60
2023-01-19T16:31:22.197Z,15.27
2023-01-19T16:33:48.987Z,13.30
2023-01-19T16:36:22.917Z,18.73
2023-01-19T16:38:49.147Z,24.00
2023-01-19T16:41:15.568Z,16.85
2023-01-19T16:43:41.829Z,14.93
2023-01-19T16:46:16.788Z,13.07
2023-01-19T16:48:43.036Z,15.32
2023-01-19T16:51:09.211Z,12.20
2023-01-19T16:53:35.508Z,13.55
2023-01-19T16:56:06.401Z,12.35
2023-01-19T16:58:32.703Z,14.15
2023-01-19T17:00:59.410Z,14.20
2023-01-19T17:03:27.081Z,13.73
2023-01-19T17:05:53.346Z,14.18
2023-01-19T17:08:20.066Z,15.43
2023-01-19T17:10:46.749Z,13.35
2023-01-19T17:13:13.090Z,12.90
2023-01-19T17:15:39.319Z,13.25
2023-01-19T17:18:05.558Z,13.38
2023-01-19T17:20:34.546Z,13.52
2023-01-19T17:23:00.934Z,11.15
2023-01-19T17:25:27.206Z,11.50
2023-01-19T17:27:53.489Z,12.20
2023-01-19T17:30:20.277Z,12.05
2023-01-19T17:32:46.631Z,15.90
2023-01-19T17:35:12.879Z,11.93
2023-01-19T17:37:39.093Z,12.05
2023-01-19T17:40:05.607Z,13.50
2023-01-19T17:42:31.792Z,10.00
2023-01-19T17:44:58.002Z,8.02
2023-01-19T17:47:25.922Z,12.18
2023-01-19T17:49:52.221Z,13.38
2023-01-19T17:52:18.528Z,13.95
2023-01-19T17:54:44.755Z,11.40
2023-01-19T17:57:10.968Z,14.50
2023-01-19T17:59:39.664Z,11.63
2023-01-19T18:02:06.011Z,12.38
2023-01-19T18:04:32.383Z,10.68
2023-01-19T18:06:58.607Z,10.73
2023-01-19T18:09:24.869Z,12.23
2023-01-19T18:11:51.169Z,10.88
2023-01-19T18:14:17.375Z,14.18
2023-01-19T18:16:43.568Z,8.80
2023-01-19T18:19:09.759Z,12.35
2023-01-19T18:21:35.959Z,12.68
2023-01-19T18:24:03.770Z,11.60
2023-01-19T18:26:30.840Z,11.35
2023-01-19T18:28:57.437Z,13.32
2023-01-19T18:31:24.752Z,10.05
2023-01-19T18:33:51.036Z,10.02
2023-01-19T18:36:17.633Z,13.70
2023-01-19T18:38:44.240Z,11.02
2023-01-19T18:41:11.334Z,8.80
2023-01-19T18:43:37.795Z,14.60
2023-01-19T18:46:04.065Z,13.57
2023-01-19T18:48:30.493Z,9.52
2023-01-19T18:50:56.857Z,10.93
2023-01-19T18:53:23.558Z,10.85
2023-01-19T18:55:53.603Z,10.77
2023-01-19T18:58:20.163Z,12.82
2023-01-19T19:00:46.474Z,9.18
2023-01-19T19:03:12.795Z,9.27
2023-01-19T19:05:39.151Z,9.40
2023-01-19T19:08:05.742Z,12.23
2023-01-19T19:10:31.957Z,10.50
2023-01-19T19:12:58.225Z,15.63
2023-01-19T19:15:24.535Z,15.15
2023-01-19T19:17:50.765Z,11.15
2023-01-19T19:20:17.268Z,11.70
2023-01-19T19:22:43.490Z,14.93
2023-01-19T19:25:09.853Z,15.50
2023-01-19T19:27:36.872Z,14.95
2023-01-19T19:30:03.448Z,15.05
2023-01-19T19:32:29.657Z,10.85
2023-01-19T19:34:58.003Z,13.55
2023-01-19T19:37:24.756Z,13.02
2023-01-19T19:39:51.108Z,13.30
2023-01-19T19:42:17.332Z,17.45
2023-01-19T19:44:43.565Z,17.65
2023-01-19T19:47:09.792Z,14.63
2023-01-19T19:49:36.081Z,12.95
2023-01-19T19:52:02.342Z,14.02
2023-01-19T19:54:28.552Z,16.23
2023-01-19T19:56:54.755Z,12.85
2023-01-19T19:59:20.982Z,10.50
2023-01-19T20:01:49.650Z,10.50
2023-01-19T20:04:19.826Z,17.20
2023-01-19T20:06:47.631Z,11.57
2023-01-19T20:09:14.647Z,12.60
2023-01-19T20:11:41.558Z,10.75
2023-01-19T20:14:08.516Z,13.57
2023-01-19T20:16:34.980Z,10.60
2023-01-19T20:19:01.378Z,12.38
2023-01-19T20:21:28.768Z,14.07
2023-01-19T20:23:55.910Z,11.48
2023-01-19T20:26:25.111Z,11.48
2023-01-19T20:28:51.472Z,12.70
2023-01-19T20:31:19.329Z,9.88
2023-01-19T20:33:47.011Z,11.90
2023-01-19T20:36:13.470Z,13.32
2023-01-19T20:38:40.339Z,10.48
2023-01-19T20:41:07.189Z,12.73
2023-01-19T20:43:33.500Z,13.48
2023-01-19T20:45:59.811Z,12.30
2023-01-19T20:48:26.187Z,11.50
2023-01-19T20:50:59.203Z,10.30
2023-01-19T20:53:25.598Z,9.48
2023-01-19T20:55:51.806Z,15.70
2023-01-19T20:58:18.017Z,10.20
2023-01-19T21:00:44.616Z,11.25
2023-01-19T21:03:10.911Z,12.18
2023-01-19T21:05:37.226Z,11.50
2023-01-19T21:08:03.725Z,11.25
2023-01-19T21:10:30.047Z,11.05
2023-01-19T21:12:56.322Z,9.27
2023-01-19T21:15:22.521Z,9.07
2023-01-19T21:17:48.873Z,12.35
2023-01-19T21:20:15.229Z,9.88
2023-01-19T21:22:41.425Z,10.98
2023-01-19T21:25:08.125Z,8.10
2023-01-19T21:27:34.330Z,10.57
2023-01-19T21:30:02.188Z,9.88
2023-01-19T21:32:29.280Z,10.70
2023-01-19T21:34:55.540Z,12.93
2023-01-19T21:37:21.788Z,11.10
2023-01-19T21:39:48.010Z,11.40
2023-01-19T21:42:14.236Z,11.82
2023-01-19T21:44:40.508Z,12.55
2023-01-19T21:47:08.910Z,10.70
2023-01-19T21:49:35.323Z,12.60
2023-01-19T21:52:01.505Z,11.48
2023-01-19T21:54:27.691Z,13.55
2023-01-19T21:56:53.941Z,13.95
2023-01-19T21:59:20.517Z,11.73
2023-01-19T22:01:46.913Z,13.88
2023-01-19T22:04:13.257Z,15.45
2023-01-19T22:06:39.546Z,17.20
2023-01-19T22:09:05.973Z,12.52
2023-01-19T22:11:32.334Z,11.52
2023-01-19T22:13:59.612Z,11.85
2023-01-19T22:16:26.317Z,12.55
2023-01-19T22:18:54.022Z,12.02
2023-01-19T22:21:21.473Z,14.23
2023-01-19T22:23:48.880Z,15.90
2023-01-19T22:26:15.346Z,13.68
2023-01-19T22:28:41.575Z,13.52
2023-01-19T22:31:09.287Z,12.32
2023-01-19T22:33:35.873Z,13.07
2023-01-19T22:36:09.045Z,13.23
2023-01-19T22:38:35.254Z,18.05
2023-01-19T22:41:01.566Z,13.88
2023-01-19T22:43:27.868Z,18.20
2023-01-19T22:45:55.705Z,15.15
2023-01-19T22:48:22.224Z,15.75
2023-01-19T22:50:48.544Z,14.00
2023-01-19T22:53:14.773Z,15.75
2023-01-19T22:55:41.060Z,14.63
2023-01-19T22:58:07.272Z,12.88
2023-01-19T23:00:33.464Z,16.80
2023-01-19T23:02:59.691Z,18.23
2023-01-19T23:05:25.979Z,16.73
2023-01-19T23:07:52.211Z,17.77
2023-01-19T23:10:18.422Z,14.60
2023-01-19T23:12:46.512Z,16.98
2023-01-19T23:15:12.957Z,17.02
2023-01-19T23:17:39.278Z,14.20
2023-01-19T23:20:05.848Z,17.85
2023-01-19T23:22:32.075Z,15.98
2023-01-19T23:24:58.287Z,15.98
2023-01-19T23:27:24.488Z,16.38
2023-01-19T23:29:50.719Z,16.58
2023-01-19T23:32:16.927Z,16.50
2023-01-19T23:34:43.157Z,13.30
2023-01-19T23:37:09.404Z,18.65
2023-01-19T23:39:35.624Z,15.63
2023-01-19T23:42:03.427Z,14.48
2023-01-19T23:44:29.629Z,21.42
2023-01-19T23:46:57.849Z,16.77
2023-01-19T23:49:24.172Z,16.30
2023-01-19T23:51:50.375Z,16.58
2023-01-19T23:54:16.864Z,17.50
2023-01-19T23:56:43.243Z,15.75
2023-01-19T23:59:10.755Z,19.75
